In Rescue
 
Open Full Screen Window  High Contrast Mode
Wind Gusting 00 knots
05
June 22, 2024 8:40 PM EDT
Weather Information
Wind Direction
  240 °
Wind Speed
  05 kt (6 mph)
Wind Gust
  00 kt (0 mph)
Altimeter
29.90 in
Visibility
10 SM
Temperature
30° C
86° F
Dewpoint
19° C
66° F
Humidity
52%
Sky Condition
Clear
VFR

METAR KGDK 230040Z AUTO 24005KT 10SM CLR 30/19 A2990 RMK AO2

FAA Disclaimer: The data displayed is for advisory purposes only and is not to be used for flight planning or operations.